createdAt,value
2022-09-13T00:04:04.333Z,2.63
2022-09-13T00:08:08.252Z,2.10
2022-09-13T00:12:11.254Z,4.18
2022-09-13T00:16:16.271Z,2.67
2022-09-13T00:20:20.822Z,2.40
2022-09-13T00:24:23.808Z,3.03
2022-09-13T00:28:26.917Z,2.90
2022-09-13T00:32:29.966Z,2.03
2022-09-13T00:36:34.362Z,2.53
2022-09-13T00:40:39.035Z,4.03
2022-09-13T00:44:57.680Z,2.55
2022-09-13T00:49:04.982Z,6.30
2022-09-13T00:53:12.868Z,3.25
2022-09-13T00:57:19.079Z,3.22
2022-09-13T01:01:27.401Z,3.33
2022-09-13T01:05:36.431Z,9.60
2022-09-13T01:09:45.710Z,2.83
2022-09-13T01:13:49.444Z,3.20
2022-09-13T01:17:54.286Z,2.35
2022-09-13T01:22:48.634Z,3.88
2022-09-13T01:27:16.838Z,2.85
2022-09-13T01:31:33.311Z,2.17
2022-09-13T01:35:48.188Z,2.45
2022-09-13T01:40:04.484Z,6.57
2022-09-13T01:44:15.259Z,2.78
2022-09-13T01:48:24.342Z,3.28
2022-09-13T01:52:36.286Z,4.45
2022-09-13T01:56:44.758Z,2.78
2022-09-13T02:00:53.437Z,2.65
2022-09-13T02:05:10.983Z,3.65
2022-09-13T02:09:21.295Z,2.22
2022-09-13T02:13:31.164Z,7.38
2022-09-13T02:17:38.928Z,3.78
2022-09-13T02:21:47.250Z,2.42
2022-09-13T02:25:53.715Z,2.53
2022-09-13T02:30:02.035Z,5.70
2022-09-13T02:34:08.768Z,2.70
2022-09-13T02:38:19.329Z,2.28
2022-09-13T02:42:24.903Z,2.95
2022-09-13T02:46:54.270Z,3.53
2022-09-13T02:51:04.526Z,2.60
2022-09-13T02:55:17.291Z,1.52
2022-09-13T02:59:23.096Z,2.95
2022-09-13T03:03:26.119Z,2.15
2022-09-13T03:07:29.859Z,3.33
2022-09-13T03:11:51.881Z,5.93
2022-09-13T03:16:04.389Z,2.60
2022-09-13T03:20:15.759Z,2.33
2022-09-13T03:24:25.349Z,2.15
2022-09-13T03:28:39.166Z,2.45
2022-09-13T03:32:51.413Z,4.65
2022-09-13T03:36:58.538Z,3.70
2022-09-13T03:41:08.532Z,4.28
2022-09-13T03:45:16.261Z,4.57
2022-09-13T03:49:24.098Z,3.25
2022-09-13T03:53:31.496Z,5.75
2022-09-13T03:57:34.563Z,4.00
2022-09-13T04:01:38.931Z,3.10
2022-09-13T04:05:41.939Z,10.75
2022-09-13T04:09:45.981Z,3.67
2022-09-13T04:13:48.987Z,2.90
2022-09-13T04:17:53.552Z,6.53
2022-09-13T04:21:57.105Z,3.95
2022-09-13T04:26:03.896Z,5.95
2022-09-13T04:30:08.213Z,35.20
2022-09-13T04:34:12.886Z,5.65
2022-09-13T04:38:15.770Z,4.40
2022-09-13T04:42:19.590Z,3.40
2022-09-13T04:46:22.578Z,4.47
2022-09-13T04:50:27.197Z,4.25
2022-09-13T04:54:30.253Z,7.05
2022-09-13T04:58:33.375Z,20.70
2022-09-13T05:02:36.974Z,3.13
2022-09-13T05:06:41.421Z,1.88
2022-09-13T05:10:44.485Z,2.65
2022-09-13T05:14:47.484Z,2.00
2022-09-13T05:18:50.869Z,12.63
2022-09-13T05:22:57.215Z,71.50
2022-09-13T05:27:00.307Z,6.65
2022-09-13T05:31:05.763Z,2.58
2022-09-13T05:35:09.717Z,1.75
2022-09-13T05:43:40.967Z,4.78
2022-09-13T05:47:43.919Z,3.88
2022-09-13T05:51:46.920Z,2.47
2022-09-13T05:55:51.285Z,4.20
2022-09-13T05:59:54.240Z,2.45
2022-09-13T06:03:58.685Z,2.28
2022-09-13T06:08:01.725Z,1.90
2022-09-13T06:12:06.381Z,5.50
2022-09-13T06:16:11.514Z,2.83
2022-09-13T06:20:14.642Z,3.40
2022-09-13T06:24:17.687Z,2.70
2022-09-13T06:28:22.101Z,3.25
2022-09-13T06:32:25.319Z,4.55
2022-09-13T06:36:28.797Z,2.08
2022-09-13T06:40:32.568Z,3.63
2022-09-13T06:44:37.002Z,2.45
2022-09-13T06:48:41.751Z,5.00
2022-09-13T06:52:44.821Z,3.05
2022-09-13T06:56:47.816Z,3.72
2022-09-13T07:00:56.061Z,2.05
2022-09-13T07:04:59.378Z,2.15
2022-09-13T07:09:04.791Z,2.80
2022-09-13T07:13:07.895Z,1.70
2022-09-13T07:17:12.361Z,2.40
2022-09-13T07:21:16.309Z,5.53
2022-09-13T07:25:19.286Z,3.50
2022-09-13T07:29:24.098Z,2.45
2022-09-13T07:33:28.567Z,4.43
2022-09-13T07:37:31.581Z,2.92
2022-09-13T07:41:35.361Z,4.55
2022-09-13T07:45:38.445Z,4.13
2022-09-13T07:49:43.016Z,3.85
2022-09-13T07:53:47.162Z,5.75
2022-09-13T07:57:50.205Z,5.95
2022-09-13T08:01:53.354Z,8.73
2022-09-13T08:05:57.807Z,4.75
2022-09-13T08:10:00.891Z,3.65
2022-09-13T08:14:05.407Z,3.33
2022-09-13T08:18:08.903Z,5.63
2022-09-13T08:22:13.183Z,3.95
2022-09-13T08:26:17.699Z,2.42
2022-09-13T08:30:20.760Z,5.93
2022-09-13T08:34:23.846Z,3.13
2022-09-13T08:38:28.464Z,6.18
2022-09-13T08:42:47.417Z,2.78
2022-09-13T08:46:51.070Z,5.68
2022-09-13T08:51:01.076Z,3.35
2022-09-13T08:55:21.209Z,6.03
2022-09-13T08:59:42.007Z,5.55
2022-09-13T09:03:52.470Z,3.47
2022-09-13T09:08:00.390Z,3.83
2022-09-13T09:12:13.011Z,3.92
2022-09-13T09:16:29.666Z,4.47
2022-09-13T09:20:37.977Z,4.53
2022-09-13T09:24:46.714Z,5.68
2022-09-13T09:28:55.198Z,8.90
2022-09-13T09:33:10.810Z,8.90
2022-09-13T09:37:21.073Z,6.10
2022-09-13T09:41:29.526Z,6.97
2022-09-13T09:45:37.000Z,5.45
2022-09-13T09:50:03.126Z,7.20
2022-09-13T09:54:06.554Z,6.20
2022-09-13T09:58:11.338Z,4.88
2022-09-13T10:02:21.520Z,4.90
2022-09-13T10:06:28.462Z,3.65
2022-09-13T10:10:38.313Z,5.22
2022-09-13T10:14:45.937Z,6.28
2022-09-13T10:18:50.504Z,3.55
2022-09-13T10:23:21.673Z,5.05
2022-09-13T10:27:31.163Z,4.50
2022-09-13T10:31:37.582Z,5.03
2022-09-13T10:35:41.987Z,5.53
2022-09-13T10:39:56.205Z,4.60
2022-09-13T10:44:00.423Z,5.38
2022-09-13T10:48:10.828Z,6.45
2022-09-13T10:52:31.080Z,5.15
2022-09-13T10:56:34.446Z,6.55
2022-09-13T11:00:47.719Z,5.53
2022-09-13T11:05:15.077Z,5.13
2022-09-13T11:09:25.624Z,4.55
2022-09-13T11:13:41.903Z,5.60
2022-09-13T11:18:12.658Z,4.95
2022-09-13T11:22:37.193Z,6.35
2022-09-13T11:26:53.838Z,4.18
2022-09-13T11:31:19.586Z,3.60
2022-09-13T11:35:36.567Z,6.75
2022-09-13T11:39:44.940Z,5.13
2022-09-13T11:44:13.097Z,4.63
2022-09-13T11:48:44.031Z,4.75
2022-09-13T11:52:58.962Z,4.50
2022-09-13T11:57:08.092Z,6.38
2022-09-13T12:01:18.020Z,5.85
2022-09-13T12:05:24.247Z,3.70
2022-09-13T12:09:32.067Z,7.32
2022-09-13T12:13:42.269Z,3.65
2022-09-13T12:17:50.273Z,3.97
2022-09-13T12:21:57.341Z,3.50
2022-09-13T12:26:04.704Z,5.47
2022-09-13T12:30:15.239Z,3.33
2022-09-13T12:34:24.705Z,4.00
2022-09-13T12:38:42.787Z,7.00
2022-09-13T12:43:13.830Z,5.07
2022-09-13T12:47:40.693Z,3.92
2022-09-13T12:52:01.179Z,5.32
2022-09-13T12:56:32.448Z,6.25
2022-09-13T13:00:42.877Z,3.10
2022-09-13T13:04:54.671Z,5.85
2022-09-13T13:09:03.268Z,5.10
2022-09-13T13:13:14.279Z,5.43
2022-09-13T13:17:46.459Z,5.35
2022-09-13T13:55:44.687Z,3.35
2022-09-13T13:59:50.877Z,2.22
2022-09-13T14:04:27.818Z,5.85
2022-09-13T14:08:40.246Z,3.80
2022-09-13T14:13:00.393Z,3.90
2022-09-13T14:17:34.516Z,4.70
2022-09-13T14:21:37.632Z,3.35
2022-09-13T14:25:40.794Z,5.60
2022-09-13T14:29:47.056Z,4.35
2022-09-13T14:33:52.876Z,5.78
2022-09-13T14:37:57.507Z,5.28
2022-09-13T14:42:02.701Z,4.25
2022-09-13T14:46:09.436Z,5.78
2022-09-13T14:50:17.159Z,6.82
2022-09-13T14:54:26.782Z,10.82
2022-09-13T14:58:39.662Z,5.15
2022-09-13T15:02:49.565Z,5.95
2022-09-13T15:11:32.024Z,3.65
2022-09-13T15:15:38.087Z,5.38
2022-09-13T15:19:42.547Z,10.55
2022-09-13T15:23:51.684Z,4.47
2022-09-13T15:27:57.600Z,5.93
2022-09-13T15:32:00.919Z,3.67
2022-09-13T15:36:27.077Z,11.75
2022-09-13T15:40:31.812Z,4.85
2022-09-13T15:44:39.616Z,3.30
2022-09-13T15:48:52.001Z,6.68
2022-09-13T15:52:55.851Z,4.60
2022-09-13T15:57:00.047Z,4.97
2022-09-13T16:01:05.437Z,4.78
2022-09-13T16:05:08.894Z,8.85
2022-09-13T16:09:18.756Z,8.40
2022-09-13T16:13:21.778Z,7.03
2022-09-13T16:17:28.985Z,3.58
2022-09-13T16:21:32.215Z,9.35
2022-09-13T16:25:35.899Z,5.65
2022-09-13T16:29:38.911Z,10.73
2022-09-13T16:33:43.840Z,7.57
2022-09-13T16:37:51.428Z,7.38
2022-09-13T16:41:54.840Z,10.85
2022-09-13T16:45:57.850Z,9.30
2022-09-13T16:50:02.319Z,9.18
2022-09-13T16:54:06.012Z,10.20
2022-09-13T16:58:08.960Z,16.25
2022-09-13T17:02:12.694Z,10.75
2022-09-13T17:06:19.226Z,8.65
2022-09-13T17:10:23.010Z,9.98
2022-09-13T17:14:26.477Z,15.35
2022-09-13T17:18:29.566Z,18.95
2022-09-13T17:22:34.357Z,13.75
2022-09-13T17:26:37.546Z,15.18
2022-09-13T17:30:41.186Z,12.63
2022-09-13T17:34:44.234Z,11.88
2022-09-13T17:38:48.824Z,12.30
2022-09-13T17:42:51.846Z,7.88
2022-09-13T17:46:55.093Z,11.50
2022-09-13T17:51:02.137Z,10.00
2022-09-13T17:55:07.236Z,8.25
2022-09-13T17:59:12.386Z,16.42
2022-09-13T18:03:16.169Z,9.45
2022-09-13T18:07:19.672Z,13.18
2022-09-13T18:11:24.089Z,19.88
2022-09-13T18:15:27.581Z,13.68
2022-09-13T18:19:46.055Z,13.02
2022-09-13T18:23:51.393Z,8.65
2022-09-13T18:27:55.776Z,10.70
2022-09-13T18:31:59.108Z,10.80
2022-09-13T18:36:04.174Z,17.85
2022-09-13T18:40:13.987Z,10.68
2022-09-13T18:44:19.382Z,16.85
2022-09-13T18:48:22.837Z,10.68
2022-09-13T18:52:26.093Z,12.50
2022-09-13T18:56:30.074Z,17.63
2022-09-13T19:00:34.344Z,14.95
2022-09-13T19:04:37.407Z,15.63
2022-09-13T19:08:41.077Z,15.05
2022-09-13T19:12:44.304Z,20.15
2022-09-13T19:16:48.750Z,17.30
2022-09-13T19:20:52.002Z,15.65
2022-09-13T19:24:55.069Z,24.52
2022-09-13T19:29:03.816Z,15.43
2022-09-13T19:33:08.230Z,18.95
2022-09-13T19:37:11.206Z,15.30
2022-09-13T19:41:16.408Z,14.70
2022-09-13T19:45:19.916Z,21.20
2022-09-13T19:49:24.394Z,13.95
2022-09-13T19:53:46.538Z,19.60
2022-09-13T19:57:50.739Z,16.67
2022-09-13T20:01:53.848Z,20.40
2022-09-13T20:06:02.399Z,22.88
2022-09-13T20:10:05.967Z,17.02
2022-09-13T20:14:09.085Z,21.00
2022-09-13T20:18:15.539Z,22.13
2022-09-13T20:22:19.990Z,18.80
2022-09-13T20:26:25.682Z,21.80
2022-09-13T20:30:28.985Z,24.85
2022-09-13T20:34:32.272Z,23.55
2022-09-13T20:38:36.669Z,27.95
2022-09-13T20:42:39.788Z,25.33
2022-09-13T20:46:42.992Z,22.45
2022-09-13T20:50:45.910Z,23.10
2022-09-13T20:54:51.402Z,25.00
2022-09-13T20:58:57.678Z,25.75
2022-09-13T21:03:01.939Z,23.73
2022-09-13T21:07:22.370Z,26.20
2022-09-13T21:11:30.326Z,26.10
2022-09-13T21:15:35.652Z,29.77
2022-09-13T21:19:38.628Z,26.92
2022-09-13T21:23:42.001Z,29.42
2022-09-13T21:27:47.129Z,29.48
2022-09-13T21:31:50.187Z,29.77
2022-09-13T21:35:53.408Z,29.17
2022-09-13T21:39:56.395Z,32.15
2022-09-13T21:44:01.417Z,30.92
2022-09-13T21:48:04.483Z,34.83
2022-09-13T21:52:07.841Z,33.58
2022-09-13T21:56:12.337Z,35.30
2022-09-13T22:00:18.202Z,28.50
2022-09-13T22:04:27.270Z,35.72
2022-09-13T22:08:32.285Z,32.40
2022-09-13T22:12:35.295Z,25.02
2022-09-13T22:16:42.296Z,15.00
2022-09-13T22:20:45.413Z,13.27
2022-09-13T22:24:48.413Z,14.15
2022-09-13T22:28:52.293Z,10.27
2022-09-13T22:32:56.879Z,14.02
2022-09-13T22:37:00.201Z,10.73
2022-09-13T22:41:06.163Z,5.72
2022-09-13T22:45:09.711Z,10.73
2022-09-13T22:49:16.102Z,6.28
2022-09-13T22:53:19.418Z,6.57
2022-09-13T22:57:22.395Z,5.13
2022-09-13T23:01:26.661Z,8.57
2022-09-13T23:05:31.730Z,6.25
2022-09-13T23:09:34.848Z,5.40
2022-09-13T23:13:38.720Z,5.47
2022-09-13T23:17:41.771Z,5.38
2022-09-13T23:21:46.462Z,6.50
2022-09-13T23:25:49.535Z,5.07
2022-09-13T23:29:52.671Z,4.43
2022-09-13T23:33:57.930Z,8.23
2022-09-13T23:38:02.247Z,5.70
2022-09-13T23:42:05.949Z,10.55
2022-09-13T23:46:09.288Z,5.45
2022-09-13T23:50:12.334Z,8.13
2022-09-13T23:54:16.813Z,6.90
2022-09-13T23:58:19.797Z,6.30
